Time;durP1;ratioP1;P1;durP2;ratioP2;P2;SDS_P1;SDS_P2;PMS_P1;PMS_P2;Temp;Humidity;BMP_temperature;BMP_pressure;BME280_temperature;BME280_humidity;BME280_pressure;Samples;Min_cycle;Max_cycle;Signal;HPM_P1;HPM_P2
2021/11/02 00:01:07;;;;;;;6.97;3.37;;;;;;;;;;5016517;28;20190;-72
2021/11/02 00:03:33;;;;;;;7.90;3.20;;;;;;;;;;5004631;28;20752;-72
2021/11/02 00:05:58;;;;;;;8.37;3.43;;;;;;;;;;5019690;28;20200;-72
2021/11/02 00:08:24;;;;;;;6.57;3.17;;;;;;;;;;5012259;28;20256;-72
2021/11/02 00:10:49;;;;;;;7.53;3.37;;;;;;;;;;5016549;28;20226;-72
2021/11/02 00:13:18;;;;;;;6.50;3.10;;;;;;;;;;5022107;28;20620;-72
2021/11/02 00:15:46;;;;;;;6.77;3.53;;;;;;;;;;5012148;28;20701;-72
2021/11/02 00:18:12;;;;;;;5.67;3.17;;;;;;;;;;5020822;28;20256;-72
2021/11/02 00:20:38;;;;;;;8.37;3.40;;;;;;;;;;5029355;28;20205;-72
2021/11/02 00:23:06;;;;;;;6.30;3.30;;;;;;;;;;5020641;28;20181;-73
2021/11/02 00:25:32;;;;;;;8.23;3.93;;;;;;;;;;5011616;28;20198;-72
2021/11/02 00:28:00;;;;;;;5.23;3.70;;;;;;;;;;5024322;28;20550;-72
2021/11/02 00:30:26;;;;;;;13.10;4.50;;;;;;;;;;5010561;28;20194;-71
2021/11/02 00:32:53;;;;;;;13.17;4.57;;;;;;;;;;5019457;28;20264;-71
2021/11/02 00:35:20;;;;;;;9.53;4.60;;;;;;;;;;5010402;28;20564;-72
2021/11/02 00:37:46;;;;;;;10.03;5.10;;;;;;;;;;5016800;28;20654;-71
2021/11/02 00:40:14;;;;;;;11.40;4.70;;;;;;;;;;5011028;28;20178;-72
2021/11/02 00:42:49;;;;;;;10.47;4.53;;;;;;;;;;5018810;28;20190;-72
2021/11/02 00:45:17;;;;;;;10.70;4.20;;;;;;;;;;5016409;28;20569;-72
2021/11/02 00:47:42;;;;;;;8.43;4.40;;;;;;;;;;5011511;28;20584;-71
2021/11/02 00:50:10;;;;;;;10.43;4.43;;;;;;;;;;5018409;28;20280;-72
2021/11/02 00:52:40;;;;;;;9.57;5.17;;;;;;;;;;5007708;28;20658;-72
2021/11/02 00:55:07;;;;;;;9.90;4.87;;;;;;;;;;5018238;28;20186;-72
2021/11/02 00:57:33;;;;;;;12.67;5.57;;;;;;;;;;5009751;28;20209;-71
2021/11/02 00:59:58;;;;;;;12.03;6.37;;;;;;;;;;5022475;28;20196;-72
2021/11/02 01:02:24;;;;;;;8.87;5.30;;;;;;;;;;5015732;28;20315;-71
2021/11/02 01:04:49;;;;;;;12.10;5.37;;;;;;;;;;5021419;28;20182;-72
2021/11/02 01:07:15;;;;;;;11.90;5.80;;;;;;;;;;5012114;28;20206;-71
2021/11/02 01:09:43;;;;;;;11.83;6.33;;;;;;;;;;5019555;28;20264;-72
2021/11/02 01:12:09;;;;;;;13.80;6.00;;;;;;;;;;5013709;28;20201;-72
2021/11/02 01:14:35;;;;;;;10.70;5.93;;;;;;;;;;5021950;28;20249;-72
2021/11/02 01:17:00;;;;;;;12.30;6.03;;;;;;;;;;5020109;28;20278;-72
2021/11/02 01:19:26;;;;;;;12.93;6.47;;;;;;;;;;5010530;28;20188;-72
2021/11/02 01:21:51;;;;;;;12.03;7.07;;;;;;;;;;5019870;28;20552;-70
2021/11/02 01:24:17;;;;;;;9.73;5.33;;;;;;;;;;5011737;28;20213;-70
2021/11/02 01:26:43;;;;;;;12.17;5.83;;;;;;;;;;5020994;28;20626;-72
2021/11/02 01:29:09;;;;;;;11.53;6.53;;;;;;;;;;5011741;28;20545;-72
2021/11/02 01:31:34;;;;;;;15.67;6.53;;;;;;;;;;5021210;28;20217;-72
2021/11/02 01:33:59;;;;;;;12.20;6.93;;;;;;;;;;5013505;28;20201;-74
2021/11/02 01:36:25;;;;;;;14.20;6.60;;;;;;;;;;5022888;28;20186;-71
2021/11/02 01:38:50;;;;;;;14.77;6.63;;;;;;;;;;5011031;28;20181;-71
2021/11/02 01:41:18;;;;;;;14.53;6.90;;;;;;;;;;5022620;28;20178;-71
2021/11/02 01:43:44;;;;;;;13.60;7.20;;;;;;;;;;5012854;28;20216;-71
2021/11/02 01:46:32;;;;;;;12.77;7.60;;;;;;;;;;5021071;28;20197;-71
2021/11/02 01:49:00;;;;;;;16.23;6.90;;;;;;;;;;5011075;28;21130;-71
2021/11/02 01:51:27;;;;;;;15.40;8.20;;;;;;;;;;5022229;28;20202;-71
2021/11/02 01:53:53;;;;;;;16.03;7.90;;;;;;;;;;5017550;28;20216;-71
2021/11/02 01:56:20;;;;;;;15.07;7.13;;;;;;;;;;5017654;28;20283;-71
2021/11/02 01:58:47;;;;;;;20.70;8.37;;;;;;;;;;5019986;28;23113;-71
2021/11/02 02:01:40;;;;;;;14.60;7.50;;;;;;;;;;5014188;28;20182;-71
2021/11/02 02:04:11;;;;;;;21.40;8.13;;;;;;;;;;5021432;28;20182;-71
2021/11/02 02:06:55;;;;;;;10.83;6.40;;;;;;;;;;5007830;28;20206;-71
2021/11/02 02:09:31;;;;;;;18.90;7.10;;;;;;;;;;5022149;28;20198;-73
2021/11/02 02:12:09;;;;;;;16.10;7.57;;;;;;;;;;5012194;28;20232;-71
2021/11/02 02:14:59;;;;;;;12.87;6.13;;;;;;;;;;5020146;28;20542;-71
2021/11/02 02:17:31;;;;;;;13.13;7.30;;;;;;;;;;5017225;28;20257;-71
2021/11/02 02:20:09;;;;;;;14.83;7.70;;;;;;;;;;5018551;28;20186;-71
2021/11/02 02:22:41;;;;;;;14.27;7.20;;;;;;;;;;5012123;28;20277;-70
2021/11/02 02:25:21;;;;;;;12.80;7.43;;;;;;;;;;5020160;28;20240;-70
2021/11/02 02:28:11;;;;;;;16.40;7.80;;;;;;;;;;5013051;28;20956;-71
2021/11/02 02:30:41;;;;;;;15.47;8.30;;;;;;;;;;5015337;28;20210;-70
2021/11/02 02:33:09;;;;;;;17.97;8.00;;;;;;;;;;5012438;28;20201;-71
2021/11/02 02:35:36;;;;;;;18.13;8.30;;;;;;;;;;5019238;28;20186;-71
2021/11/02 02:38:03;;;;;;;13.70;8.07;;;;;;;;;;5010100;28;20604;-72
2021/11/02 02:40:30;;;;;;;14.73;8.10;;;;;;;;;;5016184;28;20527;-72
2021/11/02 02:42:57;;;;;;;17.10;8.27;;;;;;;;;;5012331;28;23714;-72
2021/11/02 02:45:25;;;;;;;19.07;8.73;;;;;;;;;;5020717;28;20194;-72
2021/11/02 02:47:51;;;;;;;12.73;7.57;;;;;;;;;;5012514;28;20185;-71
2021/11/02 02:50:19;;;;;;;15.47;9.10;;;;;;;;;;5020313;28;20174;-72
2021/11/02 02:52:46;;;;;;;16.40;8.37;;;;;;;;;;5011843;28;20182;-71
2021/11/02 02:55:13;;;;;;;22.83;9.37;;;;;;;;;;5018850;28;20576;-72
2021/11/02 02:57:39;;;;;;;19.13;9.00;;;;;;;;;;5010010;28;20879;-72
2021/11/02 03:00:05;;;;;;;19.90;10.20;;;;;;;;;;5020469;28;20174;-72
2021/11/02 03:02:32;;;;;;;16.77;9.20;;;;;;;;;;5013485;28;20319;-72
2021/11/02 03:05:02;;;;;;;16.13;9.87;;;;;;;;;;5014740;28;20194;-71
2021/11/02 03:07:28;;;;;;;21.57;9.20;;;;;;;;;;5018161;28;20238;-71
2021/11/02 03:09:53;;;;;;;19.60;9.17;;;;;;;;;;5012720;28;20565;-71
2021/11/02 03:12:29;;;;;;;21.73;10.50;;;;;;;;;;5019335;28;20214;-71
2021/11/02 03:18:07;;;;;;;20.60;10.47;;;;;;;;;;5021790;28;20287;-72
2021/11/02 03:59:05;;;;;;;23.93;10.63;;;;;;;;;;5019930;28;20616;-72
2021/11/02 04:37:51;;;;;;;18.00;11.07;;;;;;;;;;5017534;28;20288;-72
2021/11/02 05:06:49;;;;;;;19.50;11.53;;;;;;;;;;5008407;28;20268;-72
2021/11/02 05:12:39;;;;;;;23.63;12.73;;;;;;;;;;5016937;28;20295;-72
2021/11/02 05:48:13;;;;;;;21.80;12.57;;;;;;;;;;5011166;28;20193;-71
2021/11/02 05:51:04;;;;;;;22.77;12.37;;;;;;;;;;5019981;28;20638;-71
2021/11/02 05:56:21;;;;;;;32.70;15.60;;;;;;;;;;5019509;28;20225;-72
2021/11/02 06:01:28;;;;;;;27.93;15.87;;;;;;;;;;5020305;28;20206;-71
2021/11/02 06:09:30;;;;;;;35.37;14.67;;;;;;;;;;5009230;28;20220;-72
2021/11/02 06:27:42;;;;;;;28.50;14.93;;;;;;;;;;5019971;28;20328;-72
2021/11/02 06:29:09;;;;;;;31.50;14.67;;;;;;;;;;5009120;28;20212;-71
2021/11/02 06:31:38;;;;;;;20.53;13.17;;;;;;;;;;5018094;28;20210;-71
2021/11/02 06:34:20;;;;;;;38.40;16.23;;;;;;;;;;5010336;28;20201;-71
2021/11/02 06:42:59;;;;;;;31.37;15.37;;;;;;;;;;5023963;28;20627;-72
2021/11/02 06:48:26;;;;;;;28.83;14.07;;;;;;;;;;5018857;28;20684;-72
2021/11/02 07:25:30;;;;;;;35.27;16.13;;;;;;;;;;5015413;28;20209;-72
2021/11/02 07:28:24;;;;;;;37.87;16.93;;;;;;;;;;5003790;28;20284;-72
2021/11/02 08:48:57;;;;;;;11.03;6.60;;;;;;;;;;5019325;28;20654;-73
2021/11/02 08:51:24;;;;;;;11.93;6.37;;;;;;;;;;5000005;28;20300;-73
2021/11/02 08:53:50;;;;;;;12.13;5.90;;;;;;;;;;5016328;28;20197;-73
2021/11/02 08:56:19;;;;;;;10.50;6.37;;;;;;;;;;5017786;28;20197;-73
2021/11/02 08:58:47;;;;;;;7.87;5.50;;;;;;;;;;5011596;28;20705;-73
2021/11/02 09:01:16;;;;;;;10.00;5.80;;;;;;;;;;5017181;28;20327;-73
2021/11/02 09:03:49;;;;;;;5.90;4.83;;;;;;;;;;5009649;28;20280;-72
2021/11/02 09:06:17;;;;;;;8.77;5.07;;;;;;;;;;5015762;28;20190;-73
2021/11/02 09:08:45;;;;;;;9.30;5.03;;;;;;;;;;5006633;28;20659;-73
2021/11/02 09:11:15;;;;;;;8.30;5.13;;;;;;;;;;5016771;28;20226;-73
2021/11/02 09:13:49;;;;;;;10.10;5.57;;;;;;;;;;5007519;28;20186;-73
2021/11/02 09:16:16;;;;;;;10.63;5.57;;;;;;;;;;5016206;28;20698;-73
2021/11/02 09:18:43;;;;;;;9.87;4.87;;;;;;;;;;5010327;28;20197;-73
2021/11/02 09:21:09;;;;;;;9.50;5.97;;;;;;;;;;5021733;28;20178;-73
2021/11/02 09:23:39;;;;;;;7.20;4.90;;;;;;;;;;5008276;28;20245;-73
2021/11/02 09:26:05;;;;;;;7.73;4.53;;;;;;;;;;5021534;28;20190;-73
2021/11/02 09:28:32;;;;;;;8.07;5.00;;;;;;;;;;5010150;28;20200;-72
2021/11/02 09:30:58;;;;;;;6.17;4.27;;;;;;;;;;5019242;28;20218;-74
2021/11/02 09:33:24;;;;;;;8.90;5.00;;;;;;;;;;5014102;28;20240;-72
2021/11/02 09:35:58;;;;;;;12.13;5.00;;;;;;;;;;5015297;28;20670;-73
2021/11/02 09:38:42;;;;;;;5.97;4.15;;;;;;;;;;5016254;28;20182;-75
2021/11/02 09:41:12;;;;;;;11.75;4.63;;;;;;;;;;5019937;28;20189;-73
2021/11/02 09:44:04;;;;;;;5.85;3.55;;;;;;;;;;5020442;28;20186;-73
2021/11/02 09:46:41;;;;;;;6.32;4.20;;;;;;;;;;5017475;28;20240;-74
2021/11/02 09:49:23;;;;;;;9.82;3.85;;;;;;;;;;5018554;28;20190;-73
2021/11/02 09:52:15;;;;;;;5.35;3.28;;;;;;;;;;5013489;28;20228;-74
2021/11/02 09:55:08;;;;;;;6.38;3.28;;;;;;;;;;5009418;28;20211;-74
2021/11/02 09:57:51;;;;;;;6.82;3.30;;;;;;;;;;5017677;28;20642;-73
2021/11/02 10:00:54;;;;;;;4.82;3.05;;;;;;;;;;5007618;28;20700;-76
2021/11/02 10:03:23;;;;;;;5.45;3.15;;;;;;;;;;5013225;28;20185;-73
2021/11/02 10:06:15;;;;;;;4.20;3.22;;;;;;;;;;5010339;28;20328;-74
2021/11/02 10:08:50;;;;;;;5.45;3.42;;;;;;;;;;5017841;28;20190;-73
2021/11/02 10:11:45;;;;;;;7.55;2.95;;;;;;;;;;5009904;28;20245;-74
2021/11/02 10:14:32;;;;;;;7.82;2.50;;;;;;;;;;5015843;28;20190;-74
2021/11/02 10:17:00;;;;;;;6.28;3.00;;;;;;;;;;5004540;28;20672;-74
2021/11/02 10:19:47;;;;;;;5.43;3.33;;;;;;;;;;5018010;28;20196;-74
2021/11/02 10:22:28;;;;;;;5.40;2.45;;;;;;;;;;5010288;28;20209;-73
2021/11/02 10:25:03;;;;;;;4.22;2.60;;;;;;;;;;5016544;28;20202;-73
2021/11/02 10:27:50;;;;;;;4.40;2.45;;;;;;;;;;5011415;28;20193;-74
2021/11/02 10:30:20;;;;;;;4.30;2.38;;;;;;;;;;5015056;28;20181;-73
2021/11/02 10:32:49;;;;;;;3.78;2.20;;;;;;;;;;5009429;28;21645;-72
2021/11/02 10:35:27;;;;;;;3.80;2.25;;;;;;;;;;5019400;28;20249;-73
2021/11/02 10:38:22;;;;;;;3.78;2.22;;;;;;;;;;5008610;28;20224;-72
2021/11/02 10:40:56;;;;;;;4.35;2.20;;;;;;;;;;5018565;28;20192;-73
2021/11/02 10:43:41;;;;;;;3.88;2.33;;;;;;;;;;5003000;28;20193;-72
2021/11/02 10:46:12;;;;;;;8.55;2.40;;;;;;;;;;5019469;28;20186;-72
2021/11/02 10:48:41;;;;;;;3.10;2.33;;;;;;;;;;5012034;28;20705;-73
2021/11/02 10:51:09;;;;;;;5.22;2.80;;;;;;;;;;5018994;28;20271;-72
2021/11/02 10:53:53;;;;;;;3.38;2.20;;;;;;;;;;5007640;28;20320;-72
2021/11/02 10:56:41;;;;;;;5.90;2.30;;;;;;;;;;5015880;28;20689;-74
2021/11/02 10:59:13;;;;;;;3.85;2.05;;;;;;;;;;5010226;28;20196;-73
2021/11/02 11:01:39;;;;;;;7.63;2.40;;;;;;;;;;5018458;28;20256;-73
2021/11/02 11:04:07;;;;;;;3.50;2.15;;;;;;;;;;5008631;28;20209;-73
2021/11/02 11:06:34;;;;;;;3.20;2.25;;;;;;;;;;5021412;28;20194;-73
2021/11/02 11:09:01;;;;;;;5.72;2.75;;;;;;;;;;5011580;28;20596;-73
2021/11/02 11:11:30;;;;;;;6.28;2.53;;;;;;;;;;5020084;28;20682;-73
2021/11/02 11:14:04;;;;;;;4.90;2.53;;;;;;;;;;5009072;28;23196;-73
2021/11/02 11:16:35;;;;;;;3.33;2.22;;;;;;;;;;5032750;28;20194;-74
2021/11/02 11:19:14;;;;;;;7.00;2.67;;;;;;;;;;5009696;28;20281;-73
2021/11/02 11:21:42;;;;;;;6.95;2.60;;;;;;;;;;5018543;28;20185;-74
2021/11/02 11:24:21;;;;;;;2.65;1.98;;;;;;;;;;5010519;28;20268;-73
2021/11/02 11:26:52;;;;;;;8.27;2.17;;;;;;;;;;5017294;28;20283;-74
2021/11/02 11:29:23;;;;;;;4.43;2.50;;;;;;;;;;5016019;28;20182;-73
2021/11/02 11:31:54;;;;;;;5.68;2.50;;;;;;;;;;5016864;28;21578;-74
2021/11/02 11:34:50;;;;;;;5.85;2.60;;;;;;;;;;5014654;28;20236;-74
2021/11/02 11:37:26;;;;;;;4.30;2.15;;;;;;;;;;5029424;28;20314;-73
2021/11/02 11:40:05;;;;;;;4.38;2.63;;;;;;;;;;5018381;28;20276;-77
2021/11/02 11:42:33;;;;;;;3.78;2.30;;;;;;;;;;5020771;28;20200;-73
2021/11/02 11:45:14;;;;;;;5.40;2.40;;;;;;;;;;5018299;28;20194;-74
2021/11/02 11:47:40;;;;;;;2.97;2.00;;;;;;;;;;5012508;28;20202;-73
2021/11/02 11:50:12;;;;;;;5.57;2.55;;;;;;;;;;5014490;28;20182;-74
2021/11/02 11:52:50;;;;;;;3.60;2.13;;;;;;;;;;5012275;28;20214;-73
2021/11/02 11:55:27;;;;;;;6.22;2.00;;;;;;;;;;5021113;28;20186;-74
2021/11/02 11:58:16;;;;;;;4.85;2.55;;;;;;;;;;5010472;28;20658;-74
2021/11/02 12:00:45;;;;;;;5.38;2.60;;;;;;;;;;5013792;28;20294;-74
2021/11/02 12:03:24;;;;;;;4.95;2.60;;;;;;;;;;5009828;28;20513;-74
2021/11/02 12:06:09;;;;;;;5.43;2.42;;;;;;;;;;5020909;28;20186;-74
2021/11/02 12:08:59;;;;;;;4.90;2.58;;;;;;;;;;5025275;28;20193;-74
2021/11/02 12:11:29;;;;;;;6.70;2.67;;;;;;;;;;5018790;28;20221;-73
2021/11/02 12:14:03;;;;;;;5.55;2.72;;;;;;;;;;5010844;28;20646;-73
2021/11/02 12:16:38;;;;;;;4.95;2.80;;;;;;;;;;5007961;28;20193;-73
2021/11/02 12:19:06;;;;;;;2.88;2.38;;;;;;;;;;4998060;28;20220;-73
2021/11/02 12:21:32;;;;;;;6.22;2.58;;;;;;;;;;5002234;28;20290;-73
2021/11/02 12:24:01;;;;;;;4.30;2.05;;;;;;;;;;5005407;28;20300;-74
2021/11/02 12:26:49;;;;;;;4.15;2.70;;;;;;;;;;5015324;28;23091;-72
2021/11/02 12:29:22;;;;;;;5.07;2.50;;;;;;;;;;5009033;28;20204;-72
2021/11/02 12:31:55;;;;;;;5.25;2.97;;;;;;;;;;5015962;28;20233;-73
2021/11/02 12:34:20;;;;;;;5.15;2.70;;;;;;;;;;5006387;28;20287;-72
2021/11/02 12:36:48;;;;;;;7.57;3.00;;;;;;;;;;5015247;28;20675;-72
2021/11/02 12:39:17;;;;;;;6.53;2.50;;;;;;;;;;5010455;28;20284;-72
2021/11/02 12:41:52;;;;;;;7.43;2.80;;;;;;;;;;5014193;28;20178;-72
2021/11/02 12:44:24;;;;;;;5.60;2.78;;;;;;;;;;5008586;28;20232;-72
2021/11/02 12:46:49;;;;;;;7.32;3.10;;;;;;;;;;5015184;28;20531;-72
2021/11/02 12:49:24;;;;;;;5.72;2.83;;;;;;;;;;5008560;28;20190;-73
2021/11/02 12:51:53;;;;;;;4.88;2.67;;;;;;;;;;5026680;28;20296;-73
2021/11/02 12:54:21;;;;;;;4.90;2.80;;;;;;;;;;5002505;28;20296;-72
2021/11/02 12:56:57;;;;;;;6.75;2.60;;;;;;;;;;5022127;28;20681;-71
2021/11/02 12:59:28;;;;;;;5.93;2.50;;;;;;;;;;5008511;28;20189;-73
2021/11/02 13:01:58;;;;;;;3.33;1.90;;;;;;;;;;5023851;28;20847;-73
2021/11/02 13:04:33;;;;;;;7.80;2.42;;;;;;;;;;5016397;28;20197;-71
2021/11/02 13:06:59;;;;;;;4.57;2.25;;;;;;;;;;5015571;28;20200;-72
2021/11/02 13:09:34;;;;;;;5.63;2.13;;;;;;;;;;5020908;28;20194;-73
2021/11/02 13:12:05;;;;;;;5.88;2.00;;;;;;;;;;5008060;28;20240;-72
2021/11/02 13:14:49;;;;;;;3.78;2.50;;;;;;;;;;5021161;28;20196;-72
2021/11/02 13:17:17;;;;;;;7.35;2.65;;;;;;;;;;5003968;28;20243;-72
2021/11/02 13:19:48;;;;;;;3.72;2.10;;;;;;;;;;5012604;28;20197;-72
2021/11/02 13:22:15;;;;;;;4.82;2.47;;;;;;;;;;5011889;28;20188;-72
2021/11/02 13:25:12;;;;;;;5.90;2.67;;;;;;;;;;5016864;28;20190;-72
2021/11/02 13:27:37;;;;;;;3.08;2.40;;;;;;;;;;5010876;28;20224;-72
2021/11/02 13:30:21;;;;;;;2.60;2.40;;;;;;;;;;5021403;28;20182;-72
2021/11/02 13:33:05;;;;;;;6.18;2.67;;;;;;;;;;5012490;28;20221;-73
2021/11/02 13:36:02;;;;;;;6.30;2.97;;;;;;;;;;5018658;28;20193;-72
2021/11/02 13:38:38;;;;;;;7.78;3.03;;;;;;;;;;5011534;28;20193;-73
2021/11/02 13:41:24;;;;;;;6.00;3.20;;;;;;;;;;5019896;28;20256;-72
2021/11/02 13:44:00;;;;;;;5.47;3.30;;;;;;;;;;5012064;28;20216;-73
2021/11/02 13:46:38;;;;;;;4.17;2.80;;;;;;;;;;4437939;28;10001950;-73
2021/11/02 13:49:08;;;;;;;4.45;2.53;;;;;;;;;;5008520;28;20197;-72
2021/11/02 13:51:34;;;;;;;4.78;2.75;;;;;;;;;;5012200;28;20248;-71
2021/11/02 13:54:00;;;;;;;7.57;3.40;;;;;;;;;;5008903;28;20201;-72
2021/11/02 13:56:46;;;;;;;7.32;3.20;;;;;;;;;;5017779;28;20292;-72
2021/11/02 13:59:14;;;;;;;6.35;2.78;;;;;;;;;;5007996;28;20213;-72
2021/11/02 14:01:48;;;;;;;6.93;3.10;;;;;;;;;;5017706;28;20209;-72
2021/11/02 14:04:37;;;;;;;3.55;2.78;;;;;;;;;;5006478;28;20190;-73
2021/11/02 14:07:05;;;;;;;5.45;3.13;;;;;;;;;;5017956;28;20710;-72
2021/11/02 14:09:34;;;;;;;4.13;3.28;;;;;;;;;;5006568;28;20269;-72
2021/11/02 14:12:00;;;;;;;5.18;3.30;;;;;;;;;;5018526;28;20222;-73
2021/11/02 14:14:35;;;;;;;5.45;3.28;;;;;;;;;;5007903;28;20202;-73
2021/11/02 14:17:18;;;;;;;7.07;3.40;;;;;;;;;;5017390;28;20232;-72
2021/11/02 14:19:48;;;;;;;5.22;2.90;;;;;;;;;;5006684;28;20197;-72
2021/11/02 14:22:15;;;;;;;5.50;3.40;;;;;;;;;;5016897;28;20528;-74
2021/11/02 14:24:44;;;;;;;3.78;2.78;;;;;;;;;;5005892;28;20198;-73
2021/11/02 14:27:12;;;;;;;6.63;3.80;;;;;;;;;;5015166;28;20870;-71
2021/11/02 14:29:55;;;;;;;6.22;3.28;;;;;;;;;;5005708;28;20536;-72
2021/11/02 14:32:35;;;;;;;4.47;3.10;;;;;;;;;;5012930;28;20615;-72
2021/11/02 14:35:08;;;;;;;5.28;3.60;;;;;;;;;;5007249;28;20182;-72
2021/11/02 14:37:50;;;;;;;6.13;3.20;;;;;;;;;;5017228;28;20281;-72
2021/11/02 14:40:25;;;;;;;7.50;3.25;;;;;;;;;;5010076;28;20212;-72
2021/11/02 14:42:52;;;;;;;7.53;3.53;;;;;;;;;;5015072;28;20197;-71
2021/11/02 14:45:20;;;;;;;5.22;3.88;;;;;;;;;;5004909;28;20202;-72
2021/11/02 14:47:49;;;;;;;5.28;3.63;;;;;;;;;;5015320;28;20198;-72
2021/11/02 14:50:33;;;;;;;5.38;4.03;;;;;;;;;;5004001;28;20191;-71
2021/11/02 14:53:16;;;;;;;9.98;3.97;;;;;;;;;;5012746;28;20209;-71
2021/11/02 14:55:52;;;;;;;7.47;3.92;;;;;;;;;;5005874;28;20228;-72
2021/11/02 14:58:53;;;;;;;7.93;4.63;;;;;;;;;;5015579;28;20186;-72
2021/11/02 15:01:31;;;;;;;5.72;3.92;;;;;;;;;;4983007;28;20512;-71
2021/11/02 15:04:07;;;;;;;7.13;4.15;;;;;;;;;;5013840;28;20220;-71
2021/11/02 15:06:43;;;;;;;7.78;3.92;;;;;;;;;;5008264;28;20185;-71
2021/11/02 15:09:13;;;;;;;7.15;3.95;;;;;;;;;;5017168;28;20204;-71
2021/11/02 15:11:39;;;;;;;6.35;3.72;;;;;;;;;;5006836;28;20278;-71
2021/11/02 15:14:10;;;;;;;6.20;3.88;;;;;;;;;;5018856;28;20225;-71
2021/11/02 15:16:44;;;;;;;6.72;4.00;;;;;;;;;;5007726;28;20205;-72
2021/11/02 15:19:10;;;;;;;6.03;4.20;;;;;;;;;;5016674;28;20185;-71
2021/11/02 15:21:40;;;;;;;6.07;4.25;;;;;;;;;;5015057;28;20189;-71
2021/11/02 15:24:28;;;;;;;8.40;4.43;;;;;;;;;;5011870;28;20241;-71
2021/11/02 15:26:57;;;;;;;10.80;4.50;;;;;;;;;;5015643;28;20236;-71
2021/11/02 15:29:25;;;;;;;8.90;4.43;;;;;;;;;;5011067;28;20184;-72
2021/11/02 15:32:00;;;;;;;6.57;4.05;;;;;;;;;;5016668;28;20212;-71
2021/11/02 15:35:06;;;;;;;9.43;4.28;;;;;;;;;;5016079;28;20630;-71
2021/11/02 15:37:43;;;;;;;5.47;4.30;;;;;;;;;;4950793;28;20195;-72
2021/11/02 15:40:21;;;;;;;6.85;4.28;;;;;;;;;;4969359;28;20196;-71
2021/11/02 15:42:57;;;;;;;9.90;4.57;;;;;;;;;;4985465;28;20193;-72
2021/11/02 15:45:32;;;;;;;6.63;4.00;;;;;;;;;;5015972;28;20190;-73
2021/11/02 15:48:08;;;;;;;5.55;4.20;;;;;;;;;;5014776;28;20197;-72
2021/11/02 15:50:35;;;;;;;6.43;4.53;;;;;;;;;;5014952;28;20601;-72
2021/11/02 15:53:04;;;;;;;7.22;4.85;;;;;;;;;;5011410;28;20540;-72
2021/11/02 15:55:30;;;;;;;7.35;4.70;;;;;;;;;;4666495;28;10000279;-72
2021/11/02 15:57:58;;;;;;;8.10;4.65;;;;;;;;;;5013438;28;20194;-72
2021/11/02 16:00:29;;;;;;;11.88;5.15;;;;;;;;;;5008231;28;20217;-72
2021/11/02 16:02:55;;;;;;;13.68;4.93;;;;;;;;;;5014974;28;20183;-72
2021/11/02 16:05:26;;;;;;;11.02;4.93;;;;;;;;;;5005861;28;20228;-72
2021/11/02 16:07:56;;;;;;;8.23;4.90;;;;;;;;;;5017843;28;20190;-72
2021/11/02 16:10:33;;;;;;;7.07;4.85;;;;;;;;;;5009845;28;20595;-72
2021/11/02 16:13:06;;;;;;;7.90;4.72;;;;;;;;;;5013883;28;20225;-72
2021/11/02 16:15:36;;;;;;;10.90;5.60;;;;;;;;;;5012174;28;20189;-72
2021/11/02 16:18:15;;;;;;;7.18;4.97;;;;;;;;;;5019108;28;20888;-72
2021/11/02 16:20:42;;;;;;;6.93;4.93;;;;;;;;;;5010140;28;20243;-72
2021/11/02 16:23:14;;;;;;;10.55;5.38;;;;;;;;;;5019254;28;20569;-72
2021/11/02 16:25:45;;;;;;;10.30;5.57;;;;;;;;;;5010477;28;20614;-72
2021/11/02 16:28:17;;;;;;;7.78;4.88;;;;;;;;;;5020442;28;20656;-72
2021/11/02 16:30:43;;;;;;;8.50;5.10;;;;;;;;;;5007931;28;20190;-73
2021/11/02 16:33:09;;;;;;;7.43;5.10;;;;;;;;;;5019232;28;20214;-73
2021/11/02 16:35:42;;;;;;;8.07;5.72;;;;;;;;;;5011404;28;20268;-74
2021/11/02 16:38:27;;;;;;;10.88;5.68;;;;;;;;;;5019202;28;20170;-77
2021/11/02 16:40:52;;;;;;;12.00;5.68;;;;;;;;;;5010987;28;20616;-74
2021/11/02 16:43:36;;;;;;;12.88;7.20;;;;;;;;;;5018716;28;20185;-74
2021/11/02 16:46:08;;;;;;;10.98;6.78;;;;;;;;;;5013879;28;20197;-73
2021/11/02 16:48:40;;;;;;;12.57;6.75;;;;;;;;;;5015549;28;20262;-73
2021/11/02 16:51:06;;;;;;;9.90;6.80;;;;;;;;;;5017859;28;20182;-74
2021/11/02 16:53:32;;;;;;;9.45;6.15;;;;;;;;;;5006708;28;20224;-74
2021/11/02 16:56:01;;;;;;;10.07;6.50;;;;;;;;;;5018715;28;20335;-74
2021/11/02 16:58:30;;;;;;;8.23;6.93;;;;;;;;;;5008470;28;20989;-73
2021/11/02 17:01:18;;;;;;;11.50;7.25;;;;;;;;;;5016934;28;20229;-72
2021/11/02 17:03:45;;;;;;;10.40;7.78;;;;;;;;;;5008323;28;20202;-73
2021/11/02 17:06:21;;;;;;;10.60;7.47;;;;;;;;;;5016204;28;20882;-76
2021/11/02 17:09:09;;;;;;;15.40;8.15;;;;;;;;;;5009461;28;20263;-72
2021/11/02 17:11:45;;;;;;;9.43;7.53;;;;;;;;;;5017887;28;20241;-71
2021/11/02 17:14:13;;;;;;;11.45;7.97;;;;;;;;;;5009299;28;20194;-72
2021/11/02 17:16:43;;;;;;;12.23;8.30;;;;;;;;;;5020146;28;20200;-72
2021/11/02 17:19:10;;;;;;;11.45;8.55;;;;;;;;;;5008733;28;20193;-71
2021/11/02 17:21:37;;;;;;;9.83;7.70;;;;;;;;;;5018300;28;22080;-71
2021/11/02 17:24:05;;;;;;;14.13;8.50;;;;;;;;;;5008630;28;20182;-71
2021/11/02 17:26:32;;;;;;;13.73;8.43;;;;;;;;;;5017303;28;20542;-72
2021/11/02 17:28:59;;;;;;;13.97;9.07;;;;;;;;;;5010280;28;20186;-71
2021/11/02 17:31:27;;;;;;;11.05;8.95;;;;;;;;;;5016289;28;23296;-71
2021/11/02 17:33:56;;;;;;;14.40;9.98;;;;;;;;;;5009769;28;20255;-71
2021/11/02 17:36:23;;;;;;;14.13;10.18;;;;;;;;;;5018385;28;20185;-71
2021/11/02 17:38:49;;;;;;;11.82;9.30;;;;;;;;;;5013621;28;20182;-72
2021/11/02 17:41:15;;;;;;;13.65;9.50;;;;;;;;;;5017072;28;20170;-71
2021/11/02 17:43:42;;;;;;;15.80;9.98;;;;;;;;;;5022555;28;20203;-72
2021/11/02 17:46:10;;;;;;;10.80;8.97;;;;;;;;;;5013641;28;20656;-71
2021/11/02 17:48:36;;;;;;;15.73;10.13;;;;;;;;;;5021198;28;20190;-71
2021/11/02 17:51:02;;;;;;;13.97;8.50;;;;;;;;;;5014174;28;20190;-71
2021/11/02 17:53:27;;;;;;;13.80;9.63;;;;;;;;;;5022910;28;20530;-71
2021/11/02 17:55:58;;;;;;;11.00;9.10;;;;;;;;;;5015092;28;20286;-71
2021/11/02 17:58:26;;;;;;;16.15;9.82;;;;;;;;;;5019935;28;20240;-71
2021/11/02 18:00:54;;;;;;;12.90;9.13;;;;;;;;;;5011720;28;20197;-72
2021/11/02 18:03:19;;;;;;;12.47;9.10;;;;;;;;;;5018981;28;20692;-72
2021/11/02 18:05:46;;;;;;;14.02;8.93;;;;;;;;;;5015836;28;21375;-72
2021/11/02 18:08:12;;;;;;;12.93;9.80;;;;;;;;;;5020869;28;20194;-72
2021/11/02 18:10:38;;;;;;;15.07;9.32;;;;;;;;;;5013543;28;20321;-73
2021/11/02 18:13:06;;;;;;;16.17;9.77;;;;;;;;;;5021146;28;20202;-72
2021/11/02 18:15:33;;;;;;;16.70;10.32;;;;;;;;;;5021904;28;20634;-72
2021/11/02 18:18:02;;;;;;;11.02;8.80;;;;;;;;;;5010399;28;20202;-72
2021/11/02 18:20:28;;;;;;;12.98;9.98;;;;;;;;;;5020582;28;20591;-72
2021/11/02 18:22:53;;;;;;;10.25;8.73;;;;;;;;;;5011009;28;20190;-72
2021/11/02 18:25:21;;;;;;;13.32;9.07;;;;;;;;;;5018124;28;20263;-72
2021/11/02 18:27:52;;;;;;;14.88;9.77;;;;;;;;;;5012177;28;20260;-73
2021/11/02 18:30:19;;;;;;;12.73;9.70;;;;;;;;;;5016270;28;20281;-72
2021/11/02 18:32:45;;;;;;;15.38;11.13;;;;;;;;;;5014732;28;20894;-73
2021/11/02 18:35:12;;;;;;;12.48;9.90;;;;;;;;;;5022057;28;20267;-73
2021/11/02 18:37:41;;;;;;;15.40;11.20;;;;;;;;;;5010171;28;20285;-73
2021/11/02 18:40:10;;;;;;;14.97;10.30;;;;;;;;;;5020304;28;20194;-73
2021/11/02 18:42:37;;;;;;;14.32;10.48;;;;;;;;;;5011505;28;20182;-72
2021/11/02 18:45:03;;;;;;;14.40;11.00;;;;;;;;;;5021387;28;20653;-73
2021/11/02 18:47:28;;;;;;;14.75;11.13;;;;;;;;;;5012094;28;20190;-72
2021/11/02 18:49:54;;;;;;;12.55;9.90;;;;;;;;;;5021812;28;20221;-72
2021/11/02 18:52:19;;;;;;;14.77;10.88;;;;;;;;;;5020559;28;20233;-73
2021/11/02 18:54:45;;;;;;;14.60;10.80;;;;;;;;;;5010605;28;20232;-72
2021/11/02 18:57:11;;;;;;;15.25;11.18;;;;;;;;;;5017057;28;20263;-73
2021/11/02 18:59:37;;;;;;;13.75;10.65;;;;;;;;;;5011401;28;20186;-71
2021/11/02 19:02:02;;;;;;;15.13;10.65;;;;;;;;;;5022048;28;20228;-72
2021/11/02 19:04:29;;;;;;;16.45;12.85;;;;;;;;;;5010777;28;20268;-72
2021/11/02 19:06:54;;;;;;;15.48;12.60;;;;;;;;;;5022362;28;20273;-72
2021/11/02 19:09:19;;;;;;;16.48;12.07;;;;;;;;;;5009338;28;20625;-72
2021/11/02 19:11:45;;;;;;;16.00;12.30;;;;;;;;;;5021339;28;20250;-72
2021/11/02 19:14:11;;;;;;;17.50;12.73;;;;;;;;;;5010073;28;20243;-72
2021/11/02 19:16:37;;;;;;;18.92;14.38;;;;;;;;;;5020866;28;20248;-72
2021/11/02 19:19:03;;;;;;;18.75;13.75;;;;;;;;;;5011191;28;20194;-72
2021/11/02 19:21:28;;;;;;;20.13;14.90;;;;;;;;;;5018780;28;20175;-72
2021/11/02 19:23:54;;;;;;;20.10;15.43;;;;;;;;;;5018448;28;20185;-72
2021/11/02 19:26:19;;;;;;;21.23;16.00;;;;;;;;;;5013186;28;20954;-72
2021/11/02 19:28:45;;;;;;;23.45;16.77;;;;;;;;;;5016293;28;20182;-72
2021/11/02 19:31:11;;;;;;;19.67;14.98;;;;;;;;;;5004101;28;20194;-71
2021/11/02 19:33:38;;;;;;;22.95;17.15;;;;;;;;;;5017965;28;20670;-72
2021/11/02 19:36:05;;;;;;;23.92;16.80;;;;;;;;;;5010932;28;20550;-71
2021/11/02 19:38:30;;;;;;;24.60;17.90;;;;;;;;;;5017289;28;20612;-72
2021/11/02 19:40:55;;;;;;;24.58;17.83;;;;;;;;;;5012051;28;20190;-72
2021/11/02 19:43:21;;;;;;;26.75;19.02;;;;;;;;;;5020100;28;20531;-72
2021/11/02 19:45:47;;;;;;;27.05;19.42;;;;;;;;;;5011612;28;25047;-72
2021/11/02 19:48:29;;;;;;;26.01;19.51;;;;;;;;;;4933290;28;10000578;-72